UAL562 KSFO-KBZN
Flight info
| Callsign | UAL562 |
|---|---|
| Flight time | 1h 48m |
| Altitude | 37000 |
| Route | TRUKN2 ORRCA FMG PRNCS FUZII BGMAN BGMAN1 |
| Aircraft | A320/M-SDE3FGHIRWY/LB1 |
Departure
| Time | 2026-05-06 21:56 |
|---|---|
| Airport | San Francisco International Airport (KSFO) |
Arrival
| Time | 2026-05-06 23:44 |
|---|---|
| Airport | Bozeman Yellowstone International Airport (KBZN) |
| Time | Latitude | Longitude | Altitude | Speed | Heading |
|---|---|---|---|---|---|
| 2026-05-06 21:20 | 37.61805 | -122.38414 | 25 ft | 0 kts | 285° |
| 2026-05-06 21:45 | 37.61805 | -122.38413 | 22 ft | 2 kts | 285° |
| 2026-05-06 21:45 | 37.61800 | -122.38384 | 24 ft | 4 kts | 255° |
| 2026-05-06 21:45 | 37.61808 | -122.38358 | 23 ft | 4 kts | 229° |
| 2026-05-06 21:45 | 37.61829 | -122.38339 | 24 ft | 4 kts | 207° |
| 2026-05-06 21:46 | 37.61848 | -122.38325 | 22 ft | 4 kts | 246° |
| 2026-05-06 21:46 | 37.61846 | -122.38303 | 22 ft | 4 kts | 321° |
| 2026-05-06 21:46 | 37.61855 | -122.38307 | 24 ft | 4 kts | 338° |
| 2026-05-06 21:46 | 37.61880 | -122.38306 | 22 ft | 4 kts | 16° |
| 2026-05-06 21:47 | 37.61901 | -122.38292 | 24 ft | 4 kts | 27° |
| 2026-05-06 21:47 | 37.61917 | -122.38282 | 24 ft | 0 kts | 27° |
| 2026-05-06 21:49 | 37.61922 | -122.38279 | 23 ft | 2 kts | 27° |
| 2026-05-06 21:49 | 37.61941 | -122.38266 | 22 ft | 5 kts | 27° |
| 2026-05-06 21:50 | 37.61966 | -122.38208 | 22 ft | 11 kts | 97° |
| 2026-05-06 21:50 | 37.61929 | -122.38113 | 22 ft | 13 kts | 118° |
| 2026-05-06 21:50 | 37.61884 | -122.38007 | 22 ft | 14 kts | 118° |
| 2026-05-06 21:50 | 37.61835 | -122.37889 | 22 ft | 16 kts | 112° |
| 2026-05-06 21:51 | 37.61794 | -122.37752 | 22 ft | 17 kts | 111° |
| 2026-05-06 21:51 | 37.61748 | -122.37604 | 22 ft | 19 kts | 111° |
| 2026-05-06 21:51 | 37.61691 | -122.37447 | 23 ft | 20 kts | 118° |
| 2026-05-06 21:51 | 37.61623 | -122.37283 | 22 ft | 22 kts | 118° |
| 2026-05-06 21:52 | 37.61549 | -122.37107 | 24 ft | 23 kts | 117° |
| 2026-05-06 21:52 | 37.61498 | -122.36984 | 23 ft | 24 kts | 118° |
| 2026-05-06 21:52 | 37.61388 | -122.36814 | 22 ft | 26 kts | 129° |
| 2026-05-06 21:52 | 37.61295 | -122.36613 | 23 ft | 27 kts | 117° |
| 2026-05-06 21:53 | 37.61204 | -122.36393 | 24 ft | 29 kts | 118° |
| 2026-05-06 21:53 | 37.61112 | -122.36175 | 22 ft | 25 kts | 118° |
| 2026-05-06 21:53 | 37.61051 | -122.36012 | 22 ft | 18 kts | 96° |
| 2026-05-06 21:53 | 37.61093 | -122.35908 | 24 ft | 9 kts | 34° |
| 2026-05-06 21:54 | 37.61100 | -122.35904 | 22 ft | 0 kts | 28° |
| 2026-05-06 21:55 | 37.61144 | -122.35877 | 23 ft | 12 kts | 15° |
| 2026-05-06 21:55 | 37.61204 | -122.35919 | 22 ft | 6 kts | 300° |
| 2026-05-06 21:55 | 37.61236 | -122.35994 | 24 ft | 32 kts | 298° |
| 2026-05-06 21:56 | 37.61459 | -122.36526 | 23 ft | 100 kts | 298° |
| 2026-05-06 21:56 | 37.61863 | -122.37492 | 146 ft | 137 kts | 297° |
| 2026-05-06 21:56 | 37.62310 | -122.38559 | 734 ft | 140 kts | 303° |
| 2026-05-06 21:56 | 37.63145 | -122.39186 | 1222 ft | 153 kts | 356° |
| 2026-05-06 21:57 | 37.64191 | -122.38724 | 1450 ft | 178 kts | 41° |
| 2026-05-06 21:57 | 37.64981 | -122.37404 | 1713 ft | 201 kts | 56° |
| 2026-05-06 21:57 | 37.65717 | -122.35789 | 1949 ft | 225 kts | 59° |
| 2026-05-06 21:57 | 37.66485 | -122.33952 | 2302 ft | 249 kts | 61° |
| 2026-05-06 21:58 | 37.67312 | -122.31944 | 2895 ft | 263 kts | 61° |
| 2026-05-06 21:58 | 37.68163 | -122.29888 | 3797 ft | 265 kts | 61° |
| 2026-05-06 21:58 | 37.69026 | -122.27828 | 4699 ft | 266 kts | 60° |
| 2026-05-06 21:58 | 37.69902 | -122.25765 | 5586 ft | 267 kts | 59° |
| 2026-05-06 21:59 | 37.70793 | -122.23689 | 6414 ft | 270 kts | 60° |
| 2026-05-06 21:59 | 37.71824 | -122.21708 | 7204 ft | 271 kts | 48° |
| 2026-05-06 21:59 | 37.73223 | -122.20110 | 7956 ft | 274 kts | 34° |
| 2026-05-06 21:59 | 37.74782 | -122.18719 | 8778 ft | 275 kts | 34° |
| 2026-05-06 22:00 | 37.76356 | -122.17310 | 9540 ft | 279 kts | 34° |
| 2026-05-06 22:00 | 37.77948 | -122.15876 | 10295 ft | 282 kts | 34° |
| 2026-05-06 22:00 | 37.79604 | -122.14383 | 10534 ft | 304 kts | 34° |
| 2026-05-06 22:00 | 37.81387 | -122.12775 | 10690 ft | 326 kts | 35° |
| 2026-05-06 22:01 | 37.83243 | -122.11095 | 11115 ft | 337 kts | 35° |
| 2026-05-06 22:01 | 37.85192 | -122.09327 | 11724 ft | 342 kts | 36° |
| 2026-05-06 22:01 | 37.87111 | -122.07586 | 12353 ft | 346 kts | 36° |
| 2026-05-06 22:01 | 37.89071 | -122.05803 | 13021 ft | 349 kts | 36° |
| 2026-05-06 22:02 | 37.91079 | -122.03978 | 13642 ft | 352 kts | 37° |
| 2026-05-06 22:02 | 37.93078 | -122.02161 | 14202 ft | 356 kts | 37° |
| 2026-05-06 22:02 | 37.95102 | -122.00321 | 14755 ft | 359 kts | 37° |
| 2026-05-06 22:02 | 37.97146 | -121.98465 | 15339 ft | 362 kts | 37° |
| 2026-05-06 22:03 | 37.99175 | -121.96623 | 15898 ft | 366 kts | 36° |
| 2026-05-06 22:03 | 38.01250 | -121.94733 | 16513 ft | 369 kts | 37° |
| 2026-05-06 22:03 | 38.03344 | -121.92824 | 17139 ft | 372 kts | 36° |
| 2026-05-06 22:03 | 38.05482 | -121.90876 | 17778 ft | 376 kts | 36° |
| 2026-05-06 22:04 | 38.07586 | -121.88956 | 18429 ft | 379 kts | 36° |
| 2026-05-06 22:04 | 38.09731 | -121.86997 | 19018 ft | 382 kts | 36° |
| 2026-05-06 22:04 | 38.11893 | -121.85022 | 19584 ft | 385 kts | 36° |
| 2026-05-06 22:04 | 38.14073 | -121.83029 | 20115 ft | 388 kts | 36° |
| 2026-05-06 22:05 | 38.16276 | -121.81018 | 20640 ft | 391 kts | 35° |
| 2026-05-06 22:05 | 38.18494 | -121.78991 | 21162 ft | 393 kts | 35° |
| 2026-05-06 22:05 | 38.20715 | -121.76959 | 21645 ft | 396 kts | 35° |
| 2026-05-06 22:05 | 38.22963 | -121.74895 | 22112 ft | 399 kts | 35° |
| 2026-05-06 22:06 | 38.25225 | -121.72817 | 22566 ft | 402 kts | 35° |
| 2026-05-06 22:06 | 38.27498 | -121.70728 | 23013 ft | 405 kts | 35° |
| 2026-05-06 22:06 | 38.29788 | -121.68622 | 23454 ft | 408 kts | 35° |
| 2026-05-06 22:06 | 38.32096 | -121.66495 | 23864 ft | 410 kts | 35° |
| 2026-05-06 22:07 | 38.34414 | -121.64356 | 24224 ft | 413 kts | 35° |
| 2026-05-06 22:07 | 38.36744 | -121.62205 | 24586 ft | 415 kts | 35° |
| 2026-05-06 22:07 | 38.39083 | -121.60043 | 24948 ft | 417 kts | 35° |
| 2026-05-06 22:07 | 38.41439 | -121.57866 | 25299 ft | 419 kts | 34° |
| 2026-05-06 22:08 | 38.43750 | -121.55581 | 25645 ft | 422 kts | 41° |
| 2026-05-06 22:08 | 38.45753 | -121.52834 | 25985 ft | 426 kts | 51° |
| 2026-05-06 22:08 | 38.47534 | -121.49803 | 26328 ft | 428 kts | 51° |
| 2026-05-06 22:08 | 38.49299 | -121.46796 | 26664 ft | 430 kts | 51° |
| 2026-05-06 22:09 | 38.51097 | -121.43740 | 27001 ft | 432 kts | 51° |
| 2026-05-06 22:09 | 38.52906 | -121.40671 | 27334 ft | 434 kts | 51° |
| 2026-05-06 22:09 | 38.54726 | -121.37583 | 27657 ft | 436 kts | 51° |
| 2026-05-06 22:09 | 38.56550 | -121.34481 | 27982 ft | 438 kts | 51° |
| 2026-05-06 22:10 | 38.58381 | -121.31362 | 28313 ft | 439 kts | 51° |
| 2026-05-06 22:10 | 38.60220 | -121.28223 | 28633 ft | 441 kts | 51° |
| 2026-05-06 22:10 | 38.62055 | -121.25089 | 29077 ft | 440 kts | 51° |
| 2026-05-06 22:10 | 38.63882 | -121.21959 | 29564 ft | 439 kts | 51° |
| 2026-05-06 22:11 | 38.65703 | -121.18839 | 30040 ft | 437 kts | 51° |
| 2026-05-06 22:11 | 38.67524 | -121.15722 | 30471 ft | 436 kts | 51° |
| 2026-05-06 22:11 | 38.69339 | -121.12618 | 30874 ft | 435 kts | 51° |
| 2026-05-06 22:11 | 38.71149 | -121.09522 | 31268 ft | 434 kts | 51° |
| 2026-05-06 22:12 | 38.72954 | -121.06429 | 31663 ft | 433 kts | 51° |
| 2026-05-06 22:12 | 38.74752 | -121.03338 | 32068 ft | 432 kts | 51° |
| 2026-05-06 22:12 | 38.76541 | -121.00254 | 32469 ft | 431 kts | 51° |
| 2026-05-06 22:12 | 38.78329 | -120.97171 | 32878 ft | 430 kts | 51° |
| 2026-05-06 22:13 | 38.80086 | -120.94138 | 33285 ft | 429 kts | 51° |
| 2026-05-06 22:13 | 38.81862 | -120.91068 | 33725 ft | 428 kts | 51° |
| 2026-05-06 22:13 | 38.83632 | -120.88008 | 34126 ft | 427 kts | 51° |
| 2026-05-06 22:13 | 38.85398 | -120.84957 | 34474 ft | 426 kts | 51° |
| 2026-05-06 22:14 | 38.87160 | -120.81913 | 34780 ft | 425 kts | 51° |
| 2026-05-06 22:14 | 38.88920 | -120.78867 | 35094 ft | 424 kts | 51° |
| 2026-05-06 22:14 | 38.90674 | -120.75831 | 35385 ft | 423 kts | 51° |
| 2026-05-06 22:14 | 38.92428 | -120.72789 | 35668 ft | 423 kts | 51° |
| 2026-05-06 22:15 | 38.94173 | -120.69753 | 35937 ft | 423 kts | 51° |
| 2026-05-06 22:15 | 38.95916 | -120.66717 | 36201 ft | 422 kts | 51° |
| 2026-05-06 22:15 | 38.97657 | -120.63681 | 36453 ft | 422 kts | 50° |
| 2026-05-06 22:15 | 38.99403 | -120.60639 | 36698 ft | 422 kts | 50° |
| 2026-05-06 22:16 | 39.01145 | -120.57607 | 36949 ft | 422 kts | 50° |
| 2026-05-06 22:16 | 39.02888 | -120.54570 | 37136 ft | 422 kts | 50° |
| 2026-05-06 22:16 | 39.06407 | -120.48431 | 37180 ft | 431 kts | 50° |
| 2026-05-06 22:17 | 39.09975 | -120.42185 | 37175 ft | 434 kts | 51° |
| 2026-05-06 22:17 | 39.13538 | -120.35916 | 37199 ft | 434 kts | 50° |
| 2026-05-06 22:18 | 39.17104 | -120.29652 | 37228 ft | 434 kts | 50° |
| 2026-05-06 22:18 | 39.20647 | -120.23409 | 37261 ft | 434 kts | 51° |
| 2026-05-06 22:19 | 39.24208 | -120.17120 | 37293 ft | 434 kts | 51° |
| 2026-05-06 22:19 | 39.27766 | -120.10821 | 37310 ft | 434 kts | 50° |
| 2026-05-06 22:20 | 39.31325 | -120.04522 | 37307 ft | 434 kts | 50° |
| 2026-05-06 22:20 | 39.34877 | -119.98219 | 37169 ft | 434 kts | 51° |
| 2026-05-06 22:21 | 39.38425 | -119.91910 | 37168 ft | 434 kts | 50° |
| 2026-05-06 22:21 | 39.41976 | -119.85589 | 37196 ft | 435 kts | 50° |
| 2026-05-06 22:22 | 39.45524 | -119.79247 | 37211 ft | 435 kts | 50° |
| 2026-05-06 22:22 | 39.49052 | -119.72931 | 37206 ft | 436 kts | 50° |
| 2026-05-06 22:23 | 39.52902 | -119.66933 | 37205 ft | 430 kts | 38° |
| 2026-05-06 22:23 | 39.57853 | -119.62767 | 37189 ft | 423 kts | 22° |
| 2026-05-06 22:24 | 39.63191 | -119.59568 | 37147 ft | 423 kts | 22° |
| 2026-05-06 22:24 | 39.68528 | -119.56326 | 37150 ft | 424 kts | 22° |
| 2026-05-06 22:25 | 39.73868 | -119.53076 | 37137 ft | 424 kts | 22° |
| 2026-05-06 22:25 | 39.79213 | -119.49834 | 37107 ft | 424 kts | 22° |
| 2026-05-06 22:26 | 39.84522 | -119.46612 | 37081 ft | 424 kts | 22° |
| 2026-05-06 22:26 | 39.89859 | -119.43354 | 37078 ft | 424 kts | 22° |
| 2026-05-06 22:27 | 39.95193 | -119.40096 | 37078 ft | 424 kts | 22° |
| 2026-05-06 22:27 | 40.00538 | -119.36830 | 37078 ft | 424 kts | 22° |
| 2026-05-06 22:28 | 40.05885 | -119.33568 | 37084 ft | 424 kts | 22° |
| 2026-05-06 22:28 | 40.11229 | -119.30300 | 37081 ft | 425 kts | 22° |
| 2026-05-06 22:29 | 40.16580 | -119.27001 | 37087 ft | 425 kts | 22° |
| 2026-05-06 22:29 | 40.21925 | -119.23706 | 37102 ft | 425 kts | 22° |
| 2026-05-06 22:30 | 40.27276 | -119.20413 | 37099 ft | 425 kts | 22° |
| 2026-05-06 22:30 | 40.32625 | -119.17108 | 37099 ft | 425 kts | 22° |
| 2026-05-06 22:31 | 40.37970 | -119.13802 | 37100 ft | 425 kts | 21° |
| 2026-05-06 22:31 | 40.43317 | -119.10491 | 37098 ft | 425 kts | 21° |
| 2026-05-06 22:32 | 40.48666 | -119.07172 | 37093 ft | 425 kts | 21° |
| 2026-05-06 22:32 | 40.54014 | -119.03851 | 37091 ft | 425 kts | 21° |
| 2026-05-06 22:33 | 40.59332 | -119.00536 | 37091 ft | 426 kts | 21° |
| 2026-05-06 22:33 | 40.64684 | -118.97194 | 37096 ft | 426 kts | 21° |
| 2026-05-06 22:34 | 40.70039 | -118.93846 | 37100 ft | 426 kts | 21° |
| 2026-05-06 22:34 | 40.75396 | -118.90487 | 37091 ft | 426 kts | 21° |
| 2026-05-06 22:35 | 40.80756 | -118.87120 | 37088 ft | 426 kts | 21° |
| 2026-05-06 22:35 | 40.86108 | -118.83758 | 37088 ft | 426 kts | 21° |
| 2026-05-06 22:36 | 40.91468 | -118.80385 | 37085 ft | 426 kts | 21° |
| 2026-05-06 22:36 | 40.96827 | -118.77013 | 37083 ft | 427 kts | 21° |
| 2026-05-06 22:37 | 41.02187 | -118.73627 | 37083 ft | 427 kts | 21° |
| 2026-05-06 22:37 | 41.07542 | -118.70229 | 37079 ft | 427 kts | 21° |
| 2026-05-06 22:38 | 41.12870 | -118.66839 | 37079 ft | 427 kts | 21° |
| 2026-05-06 22:38 | 41.18229 | -118.63441 | 37097 ft | 427 kts | 21° |
| 2026-05-06 22:39 | 41.23580 | -118.60038 | 37093 ft | 426 kts | 21° |
| 2026-05-06 22:39 | 41.28927 | -118.56625 | 37098 ft | 426 kts | 21° |
| 2026-05-06 22:40 | 41.34279 | -118.53204 | 37072 ft | 427 kts | 21° |
| 2026-05-06 22:40 | 41.39641 | -118.49778 | 37074 ft | 428 kts | 21° |
| 2026-05-06 22:41 | 41.47696 | -118.44604 | 37074 ft | 428 kts | 21° |
| 2026-05-06 22:42 | 41.53071 | -118.41148 | 37079 ft | 429 kts | 20° |
| 2026-05-06 22:42 | 41.58445 | -118.37694 | 37076 ft | 429 kts | 20° |
| 2026-05-06 22:43 | 41.63830 | -118.34220 | 37072 ft | 429 kts | 21° |
| 2026-05-06 22:43 | 41.69172 | -118.30757 | 37092 ft | 430 kts | 21° |
| 2026-05-06 22:44 | 41.73679 | -118.27827 | 37091 ft | 430 kts | 21° |
| 2026-05-06 22:44 | 41.79929 | -118.23775 | 37087 ft | 430 kts | 20° |
| 2026-05-06 22:45 | 41.85312 | -118.20277 | 37093 ft | 430 kts | 21° |
| 2026-05-06 22:45 | 41.89821 | -118.17339 | 37092 ft | 430 kts | 20° |
| 2026-05-06 22:46 | 41.95213 | -118.13829 | 37091 ft | 430 kts | 21° |
| 2026-05-06 22:46 | 42.00599 | -118.10302 | 37093 ft | 431 kts | 20° |
| 2026-05-06 22:47 | 42.05995 | -118.06770 | 37089 ft | 431 kts | 20° |
| 2026-05-06 22:47 | 42.11362 | -118.03245 | 37101 ft | 432 kts | 20° |
| 2026-05-06 22:48 | 42.16762 | -117.99695 | 37100 ft | 432 kts | 20° |
| 2026-05-06 22:48 | 42.22163 | -117.96144 | 37098 ft | 432 kts | 20° |
| 2026-05-06 22:49 | 42.27558 | -117.92575 | 37102 ft | 432 kts | 20° |
| 2026-05-06 22:49 | 42.32954 | -117.89000 | 37106 ft | 432 kts | 20° |
| 2026-05-06 22:50 | 42.38353 | -117.85427 | 37131 ft | 432 kts | 20° |
| 2026-05-06 22:50 | 42.43646 | -117.81551 | 37131 ft | 438 kts | 30° |
| 2026-05-06 22:51 | 42.48086 | -117.75755 | 37135 ft | 448 kts | 43° |
| 2026-05-06 22:51 | 42.52204 | -117.69428 | 37126 ft | 447 kts | 43° |
| 2026-05-06 22:52 | 42.56319 | -117.63165 | 37133 ft | 447 kts | 42° |
| 2026-05-06 22:52 | 42.60444 | -117.56852 | 37115 ft | 447 kts | 43° |
| 2026-05-06 22:53 | 42.64560 | -117.50525 | 37098 ft | 447 kts | 43° |
| 2026-05-06 22:53 | 42.68669 | -117.44188 | 37098 ft | 447 kts | 43° |
| 2026-05-06 22:54 | 42.72778 | -117.37860 | 37094 ft | 446 kts | 43° |
| 2026-05-06 22:54 | 42.76884 | -117.31525 | 37088 ft | 446 kts | 43° |
| 2026-05-06 22:55 | 42.80985 | -117.25181 | 37088 ft | 446 kts | 43° |
| 2026-05-06 22:55 | 42.84921 | -117.18621 | 37112 ft | 452 kts | 52° |
| 2026-05-06 22:56 | 42.87961 | -117.11049 | 37105 ft | 456 kts | 56° |
| 2026-05-06 22:56 | 42.90935 | -117.03411 | 37109 ft | 456 kts | 56° |
| 2026-05-06 22:57 | 42.93895 | -116.95827 | 37111 ft | 456 kts | 56° |
| 2026-05-06 22:57 | 42.96870 | -116.88186 | 37117 ft | 456 kts | 56° |
| 2026-05-06 22:58 | 42.99833 | -116.80536 | 37108 ft | 456 kts | 56° |
| 2026-05-06 22:58 | 43.02788 | -116.72873 | 37093 ft | 456 kts | 56° |
| 2026-05-06 22:59 | 43.05737 | -116.65208 | 37093 ft | 456 kts | 56° |
| 2026-05-06 22:59 | 43.08679 | -116.57536 | 37095 ft | 455 kts | 56° |
| 2026-05-06 23:00 | 43.11620 | -116.49860 | 37079 ft | 456 kts | 56° |
| 2026-05-06 23:00 | 43.14560 | -116.42176 | 37075 ft | 455 kts | 56° |
| 2026-05-06 23:01 | 43.17494 | -116.34485 | 37095 ft | 455 kts | 56° |
| 2026-05-06 23:01 | 43.20418 | -116.26787 | 37085 ft | 455 kts | 56° |
| 2026-05-06 23:02 | 43.23333 | -116.19081 | 37078 ft | 455 kts | 56° |
| 2026-05-06 23:02 | 43.26241 | -116.11373 | 37078 ft | 455 kts | 56° |
| 2026-05-06 23:03 | 43.29147 | -116.03659 | 37093 ft | 455 kts | 56° |
| 2026-05-06 23:03 | 43.32032 | -115.95986 | 37088 ft | 455 kts | 56° |
| 2026-05-06 23:04 | 43.34931 | -115.88263 | 37081 ft | 455 kts | 56° |
| 2026-05-06 23:04 | 43.37823 | -115.80543 | 37087 ft | 454 kts | 56° |
| 2026-05-06 23:05 | 43.40712 | -115.72809 | 37077 ft | 454 kts | 56° |
| 2026-05-06 23:05 | 43.43586 | -115.65067 | 37081 ft | 454 kts | 56° |
| 2026-05-06 23:06 | 43.46453 | -115.57324 | 37083 ft | 454 kts | 56° |
| 2026-05-06 23:06 | 43.49321 | -115.49579 | 37079 ft | 454 kts | 57° |
| 2026-05-06 23:07 | 43.52174 | -115.41805 | 37094 ft | 454 kts | 57° |
| 2026-05-06 23:07 | 43.55023 | -115.34037 | 37089 ft | 454 kts | 57° |
| 2026-05-06 23:08 | 43.57882 | -115.26269 | 37084 ft | 454 kts | 56° |
| 2026-05-06 23:08 | 43.61090 | -115.18888 | 37081 ft | 441 kts | 42° |
| 2026-05-06 23:09 | 43.65147 | -115.12557 | 37079 ft | 440 kts | 41° |
| 2026-05-06 23:09 | 43.69199 | -115.06294 | 37077 ft | 440 kts | 41° |
| 2026-05-06 23:10 | 43.73277 | -114.99973 | 37071 ft | 441 kts | 41° |
| 2026-05-06 23:10 | 43.77351 | -114.93612 | 37080 ft | 441 kts | 41° |
| 2026-05-06 23:11 | 43.81407 | -114.87259 | 37086 ft | 441 kts | 41° |
| 2026-05-06 23:11 | 43.85469 | -114.80892 | 37077 ft | 440 kts | 41° |
| 2026-05-06 23:12 | 43.89522 | -114.74539 | 37071 ft | 440 kts | 41° |
| 2026-05-06 23:12 | 43.93575 | -114.68172 | 37061 ft | 440 kts | 41° |
| 2026-05-06 23:13 | 43.97621 | -114.61795 | 37075 ft | 440 kts | 41° |
| 2026-05-06 23:13 | 44.01660 | -114.55405 | 37067 ft | 440 kts | 41° |
| 2026-05-06 23:14 | 44.05694 | -114.49023 | 37051 ft | 440 kts | 41° |
| 2026-05-06 23:14 | 44.09728 | -114.42623 | 37047 ft | 440 kts | 41° |
| 2026-05-06 23:15 | 44.13758 | -114.36206 | 37052 ft | 440 kts | 41° |
| 2026-05-06 23:15 | 44.17782 | -114.29782 | 37027 ft | 440 kts | 42° |
| 2026-05-06 23:16 | 44.21809 | -114.23350 | 37027 ft | 440 kts | 41° |
| 2026-05-06 23:16 | 44.25835 | -114.16912 | 37005 ft | 441 kts | 41° |
| 2026-05-06 23:17 | 44.29829 | -114.10483 | 37044 ft | 441 kts | 42° |
| 2026-05-06 23:17 | 44.33848 | -114.04022 | 37043 ft | 440 kts | 42° |
| 2026-05-06 23:18 | 44.37868 | -113.97558 | 37041 ft | 440 kts | 42° |
| 2026-05-06 23:18 | 44.41869 | -113.91082 | 37034 ft | 439 kts | 41° |
| 2026-05-06 23:19 | 44.45867 | -113.84597 | 37043 ft | 440 kts | 42° |
| 2026-05-06 23:19 | 44.49865 | -113.78103 | 37032 ft | 440 kts | 42° |
| 2026-05-06 23:20 | 44.53859 | -113.71612 | 37009 ft | 440 kts | 41° |
| 2026-05-06 23:20 | 44.57827 | -113.65152 | 37008 ft | 440 kts | 42° |
| 2026-05-06 23:21 | 44.61819 | -113.58628 | 37020 ft | 441 kts | 42° |
| 2026-05-06 23:21 | 44.65806 | -113.52090 | 37015 ft | 440 kts | 42° |
| 2026-05-06 23:22 | 44.69784 | -113.45549 | 37023 ft | 440 kts | 42° |
| 2026-05-06 23:22 | 44.73761 | -113.39002 | 37019 ft | 440 kts | 42° |
| 2026-05-06 23:22 | 44.75749 | -113.35726 | 36895 ft | 440 kts | 42° |
| 2026-05-06 23:23 | 44.77730 | -113.32456 | 36640 ft | 439 kts | 42° |
| 2026-05-06 23:23 | 44.79715 | -113.29175 | 36380 ft | 439 kts | 42° |
| 2026-05-06 23:23 | 44.81690 | -113.25906 | 36120 ft | 439 kts | 42° |
| 2026-05-06 23:23 | 44.83670 | -113.22632 | 35867 ft | 438 kts | 42° |
| 2026-05-06 23:24 | 44.85641 | -113.19367 | 35615 ft | 438 kts | 42° |
| 2026-05-06 23:24 | 44.87610 | -113.16095 | 35366 ft | 438 kts | 42° |
| 2026-05-06 23:24 | 44.89576 | -113.12822 | 35115 ft | 437 kts | 42° |
| 2026-05-06 23:24 | 44.91543 | -113.09548 | 34873 ft | 437 kts | 42° |
| 2026-05-06 23:25 | 44.93509 | -113.06274 | 34184 ft | 440 kts | 42° |
| 2026-05-06 23:25 | 44.95496 | -113.02968 | 33265 ft | 443 kts | 42° |
| 2026-05-06 23:25 | 44.97463 | -112.99692 | 32403 ft | 445 kts | 42° |
| 2026-05-06 23:25 | 44.99465 | -112.96351 | 31530 ft | 447 kts | 43° |
| 2026-05-06 23:26 | 45.01465 | -112.93001 | 30894 ft | 444 kts | 43° |
| 2026-05-06 23:26 | 45.03440 | -112.89672 | 30360 ft | 439 kts | 43° |
| 2026-05-06 23:26 | 45.05398 | -112.86375 | 29740 ft | 436 kts | 43° |
| 2026-05-06 23:26 | 45.07335 | -112.83110 | 29175 ft | 430 kts | 43° |
| 2026-05-06 23:27 | 45.09244 | -112.79888 | 28624 ft | 425 kts | 42° |
| 2026-05-06 23:27 | 45.11134 | -112.76705 | 28051 ft | 421 kts | 42° |
| 2026-05-06 23:27 | 45.13007 | -112.73549 | 27511 ft | 417 kts | 43° |
| 2026-05-06 23:27 | 45.14865 | -112.70417 | 26958 ft | 413 kts | 43° |
| 2026-05-06 23:28 | 45.16707 | -112.67308 | 26419 ft | 410 kts | 43° |
| 2026-05-06 23:28 | 45.18531 | -112.64228 | 25883 ft | 407 kts | 43° |
| 2026-05-06 23:28 | 45.20346 | -112.61158 | 25355 ft | 405 kts | 43° |
| 2026-05-06 23:28 | 45.22147 | -112.58105 | 24835 ft | 403 kts | 43° |
| 2026-05-06 23:29 | 45.23943 | -112.55065 | 24322 ft | 401 kts | 43° |
| 2026-05-06 23:29 | 45.25733 | -112.52032 | 23832 ft | 400 kts | 43° |
| 2026-05-06 23:29 | 45.27516 | -112.49006 | 23247 ft | 399 kts | 43° |
| 2026-05-06 23:29 | 45.29287 | -112.45995 | 22762 ft | 395 kts | 43° |
| 2026-05-06 23:30 | 45.31041 | -112.43010 | 22299 ft | 392 kts | 43° |
| 2026-05-06 23:30 | 45.32782 | -112.40041 | 21827 ft | 390 kts | 44° |
| 2026-05-06 23:30 | 45.34510 | -112.37085 | 21359 ft | 388 kts | 44° |
| 2026-05-06 23:30 | 45.36230 | -112.34132 | 20893 ft | 386 kts | 44° |
| 2026-05-06 23:31 | 45.37934 | -112.31204 | 20434 ft | 383 kts | 45° |
| 2026-05-06 23:31 | 45.39632 | -112.28292 | 19950 ft | 382 kts | 45° |
| 2026-05-06 23:31 | 45.41322 | -112.25396 | 19500 ft | 380 kts | 45° |
| 2026-05-06 23:31 | 45.43007 | -112.22500 | 18972 ft | 380 kts | 45° |
| 2026-05-06 23:32 | 45.44690 | -112.19610 | 18478 ft | 378 kts | 45° |
| 2026-05-06 23:32 | 45.46343 | -112.16764 | 17924 ft | 377 kts | 45° |
| 2026-05-06 23:32 | 45.48005 | -112.13901 | 17467 ft | 372 kts | 45° |
| 2026-05-06 23:32 | 45.49616 | -112.11114 | 17327 ft | 358 kts | 45° |
| 2026-05-06 23:33 | 45.51173 | -112.08415 | 17192 ft | 346 kts | 45° |
| 2026-05-06 23:33 | 45.52682 | -112.05799 | 17054 ft | 336 kts | 45° |
| 2026-05-06 23:33 | 45.54054 | -112.03139 | 16852 ft | 333 kts | 53° |
| 2026-05-06 23:33 | 45.55239 | -112.00303 | 16442 ft | 332 kts | 54° |
| 2026-05-06 23:34 | 45.56412 | -111.97476 | 15986 ft | 332 kts | 54° |
| 2026-05-06 23:34 | 45.57582 | -111.94647 | 15613 ft | 331 kts | 54° |
| 2026-05-06 23:34 | 45.58746 | -111.91817 | 15247 ft | 328 kts | 54° |
| 2026-05-06 23:34 | 45.59896 | -111.89017 | 14688 ft | 325 kts | 54° |
| 2026-05-06 23:35 | 45.61035 | -111.86245 | 14252 ft | 322 kts | 54° |
| 2026-05-06 23:35 | 45.62167 | -111.83487 | 13830 ft | 323 kts | 54° |
| 2026-05-06 23:35 | 45.63304 | -111.80719 | 13377 ft | 324 kts | 54° |
| 2026-05-06 23:35 | 45.64441 | -111.77955 | 12981 ft | 322 kts | 54° |
| 2026-05-06 23:36 | 45.65201 | -111.76125 | 12629 ft | 323 kts | 52° |
| 2026-05-06 23:36 | 45.66610 | -111.73700 | 12396 ft | 312 kts | 42° |
| 2026-05-06 23:36 | 45.68076 | -111.71462 | 12153 ft | 306 kts | 41° |
| 2026-05-06 23:36 | 45.69993 | -111.68552 | 11755 ft | 302 kts | 41° |
| 2026-05-06 23:37 | 45.71430 | -111.66372 | 11432 ft | 300 kts | 41° |
| 2026-05-06 23:37 | 45.72859 | -111.64193 | 11094 ft | 301 kts | 41° |
| 2026-05-06 23:37 | 45.73817 | -111.62711 | 10856 ft | 301 kts | 41° |
| 2026-05-06 23:37 | 45.75232 | -111.60521 | 10557 ft | 299 kts | 41° |
| 2026-05-06 23:38 | 45.76645 | -111.58338 | 10261 ft | 297 kts | 41° |
| 2026-05-06 23:38 | 45.78028 | -111.56208 | 9996 ft | 295 kts | 41° |
| 2026-05-06 23:38 | 45.79421 | -111.54069 | 9696 ft | 293 kts | 41° |
| 2026-05-06 23:38 | 45.80810 | -111.51942 | 9366 ft | 291 kts | 41° |
| 2026-05-06 23:39 | 45.82195 | -111.49844 | 9031 ft | 289 kts | 41° |
| 2026-05-06 23:39 | 45.83583 | -111.47771 | 8770 ft | 285 kts | 41° |
| 2026-05-06 23:39 | 45.84899 | -111.45698 | 8637 ft | 279 kts | 51° |
| 2026-05-06 23:39 | 45.85848 | -111.43287 | 8516 ft | 275 kts | 58° |
| 2026-05-06 23:40 | 45.86715 | -111.40890 | 8391 ft | 267 kts | 58° |
| 2026-05-06 23:40 | 45.87550 | -111.38576 | 8266 ft | 253 kts | 58° |
| 2026-05-06 23:40 | 45.88332 | -111.36408 | 8142 ft | 236 kts | 58° |
| 2026-05-06 23:40 | 45.89029 | -111.34335 | 7899 ft | 228 kts | 69° |
| 2026-05-06 23:41 | 45.89132 | -111.32083 | 7506 ft | 229 kts | 102° |
| 2026-05-06 23:41 | 45.88422 | -111.30091 | 7143 ft | 222 kts | 133° |
| 2026-05-06 23:41 | 45.87341 | -111.28549 | 6830 ft | 218 kts | 137° |
| 2026-05-06 23:41 | 45.86256 | -111.27043 | 6512 ft | 215 kts | 137° |
| 2026-05-06 23:42 | 45.85213 | -111.25588 | 6224 ft | 201 kts | 136° |
| 2026-05-06 23:42 | 45.84268 | -111.24268 | 5955 ft | 185 kts | 136° |
| 2026-05-06 23:42 | 45.83369 | -111.23012 | 5691 ft | 174 kts | 134° |
| 2026-05-06 23:42 | 45.82539 | -111.21855 | 5470 ft | 162 kts | 134° |
| 2026-05-06 23:43 | 45.81746 | -111.20748 | 5270 ft | 157 kts | 134° |
| 2026-05-06 23:43 | 45.80970 | -111.19664 | 5058 ft | 155 kts | 134° |
| 2026-05-06 23:43 | 45.80203 | -111.18590 | 4876 ft | 153 kts | 134° |
| 2026-05-06 23:43 | 45.79442 | -111.17525 | 4670 ft | 152 kts | 134° |
| 2026-05-06 23:44 | 45.78686 | -111.16477 | 4499 ft | 150 kts | 134° |
| 2026-05-06 23:44 | 45.78050 | -111.15588 | 4483 ft | 91 kts | 136° |
| 2026-05-06 23:44 | 45.77722 | -111.15131 | 4483 ft | 58 kts | 136° |
| 2026-05-06 23:44 | 45.77561 | -111.14915 | 4485 ft | 11 kts | 144° |
| 2026-05-06 23:45 | 45.77493 | -111.14958 | 4485 ft | 13 kts | 224° |
| 2026-05-06 23:45 | 45.77427 | -111.15052 | 4481 ft | 11 kts | 225° |
| 2026-05-06 23:45 | 45.77430 | -111.15139 | 4481 ft | 11 kts | 314° |
| 2026-05-06 23:45 | 45.77486 | -111.15217 | 4481 ft | 12 kts | 315° |
| 2026-05-06 23:46 | 45.77549 | -111.15305 | 4483 ft | 13 kts | 316° |
| 2026-05-06 23:46 | 45.77619 | -111.15401 | 4484 ft | 15 kts | 316° |
| 2026-05-06 23:46 | 45.77695 | -111.15508 | 4483 ft | 16 kts | 316° |
| 2026-05-06 23:46 | 45.77778 | -111.15623 | 4482 ft | 17 kts | 316° |
| 2026-05-06 23:47 | 45.77869 | -111.15749 | 4484 ft | 19 kts | 315° |
| 2026-05-06 23:47 | 45.77961 | -111.15878 | 4484 ft | 14 kts | 314° |
| 2026-05-06 23:47 | 45.78028 | -111.15975 | 4482 ft | 14 kts | 315° |
| 2026-05-06 23:47 | 45.78028 | -111.16054 | 4484 ft | 9 kts | 229° |
| 2026-05-06 23:48 | 45.77991 | -111.16131 | 4481 ft | 9 kts | 228° |
| 2026-05-06 23:48 | 45.77970 | -111.16162 | 4484 ft | 2 kts | 225° |
| 2026-05-06 23:48 | 45.77965 | -111.16168 | 4481 ft | 0 kts | 225° |